首页
METAR-TAF:

METAR-TAF

机场 :

Boscombe Down, 英格兰

纬度: 51-10N, 经度: 001-45W, 海拔: 124米

当前天气观测

该预报发布于1小时和5分钟前的06:50 UTC
风速5节,风向北转西北
温度 1°C
湿度 100%
气压 1009 hPa
能見度: 6000
轻雾

METAR: EGDM 170650Z AUTO 33005KT 6000 BR FEW024/// BKN150/// 01/01 Q1009

时间: 07:55 (07:55 UTC)

预报

该预报发布于18小时和15分钟前的13:40 UTC
预报有效从16日的 15点(UTC)到 16日的 18点(UTC)
风速5节,风向
能见度10公里或以上
少量云层高于2000英尺
多云层高于3500英尺

TAF: EGDM 161340Z 1615/1618 01005KT 9999 FEW020 BKN035

超过4000个机场的气象观测和天气预报(METAR&TAF报告)。

可查询的气象台以黄色和红色小点在地图上表示。

将鼠标移到小点上方,可查看气象台名称。

然后点击查看天气观测和预报。

如需切换地图:点击带黑十字的绿色按钮放大地图;点击带横线的绿色按钮缩小地图;或者点击绿色箭头查看邻近地区的地图。


METAR-TAF: